Time;durP1;ratioP1;P1;durP2;ratioP2;P2;SDS_P1;SDS_P2;PMS_P1;PMS_P2;Temp;Humidity;BMP_temperature;BMP_pressure;BME280_temperature;BME280_humidity;BME280_pressure;Samples;Min_cycle;Max_cycle;Signal;HPM_P1;HPM_P2
2021/06/20 00:00:58;;;;;;;20.07;15.43;;;20.40;99.90;;;;;;4941963;29;20548;-84
2021/06/20 00:03:25;;;;;;;23.43;15.63;;;20.40;99.90;;;;;;4941878;29;20188;-84
2021/06/20 00:05:53;;;;;;;20.10;15.33;;;20.50;99.90;;;;;;4928453;29;20189;-84
2021/06/20 00:08:20;;;;;;;18.73;14.60;;;20.40;99.90;;;;;;4922622;29;20190;-84
2021/06/20 00:10:47;;;;;;;19.33;13.87;;;20.50;99.90;;;;;;4923313;29;20225;-84
2021/06/20 00:13:13;;;;;;;20.37;14.50;;;20.50;99.90;;;;;;4926232;29;20181;-84
2021/06/20 00:15:39;;;;;;;18.37;13.20;;;20.50;99.90;;;;;;4922206;29;20560;-84
2021/06/20 00:18:05;;;;;;;20.17;13.70;;;20.70;99.90;;;;;;4936362;29;20743;-84
2021/06/20 00:20:34;;;;;;;19.30;13.97;;;20.80;99.90;;;;;;4957078;29;20214;-84
2021/06/20 00:23:00;;;;;;;17.80;13.17;;;20.70;99.90;;;;;;4956988;29;20186;-84
2021/06/20 00:25:26;;;;;;;20.90;14.53;;;20.70;99.90;;;;;;4941060;29;20562;-84
2021/06/20 00:27:54;;;;;;;16.77;13.90;;;20.70;99.90;;;;;;4956482;29;20190;-84
2021/06/20 00:30:23;;;;;;;19.27;14.17;;;20.70;99.90;;;;;;4939998;29;20222;-85
2021/06/20 00:32:49;;;;;;;17.87;14.43;;;21.00;99.90;;;;;;4940985;29;20694;-85
2021/06/20 00:35:16;;;;;;;18.57;14.40;;;20.90;99.90;;;;;;4938855;29;20214;-84
2021/06/20 00:37:42;;;;;;;15.20;12.97;;;20.90;99.90;;;;;;4955917;29;20269;-84
2021/06/20 00:40:09;;;;;;;19.60;15.37;;;20.80;99.90;;;;;;4956447;29;20266;-82
2021/06/20 00:42:35;;;;;;;19.40;14.70;;;20.90;99.90;;;;;;4954854;29;20192;-82
2021/06/20 00:45:02;;;;;;;22.30;15.87;;;20.90;99.90;;;;;;4922880;29;20645;-82
2021/06/20 00:47:28;;;;;;;20.00;15.80;;;20.80;99.90;;;;;;4951293;29;20189;-82
2021/06/20 00:49:53;;;;;;;20.73;16.33;;;21.00;99.90;;;;;;4924334;29;20219;-82
2021/06/20 00:52:19;;;;;;;21.83;16.40;;;20.90;99.90;;;;;;4936934;29;20182;-83
2021/06/20 00:54:48;;;;;;;24.40;18.63;;;20.90;99.90;;;;;;4936549;29;20565;-84
2021/06/20 00:57:18;;;;;;;21.00;17.37;;;21.00;99.90;;;;;;4936402;29;20197;-84
2021/06/20 00:59:45;;;;;;;23.20;17.27;;;20.90;99.90;;;;;;4921593;29;20183;-84
2021/06/20 01:02:12;;;;;;;24.63;17.93;;;20.90;99.90;;;;;;4929718;29;20197;-84
2021/06/20 01:04:39;;;;;;;25.43;18.63;;;20.90;99.90;;;;;;4933166;29;20178;-84
2021/06/20 01:07:05;;;;;;;27.20;19.20;;;21.10;99.90;;;;;;4956235;29;20272;-84
2021/06/20 01:09:31;;;;;;;26.57;19.30;;;20.90;99.90;;;;;;4931424;29;20219;-84
2021/06/20 01:11:57;;;;;;;28.37;19.23;;;21.20;99.90;;;;;;4938620;29;20206;-83
2021/06/20 01:14:23;;;;;;;26.63;18.60;;;21.20;99.90;;;;;;4941570;29;20207;-84
2021/06/20 01:16:52;;;;;;;28.80;21.20;;;21.10;99.90;;;;;;4925775;29;20278;-84
2021/06/20 01:19:19;;;;;;;27.30;19.83;;;21.20;99.90;;;;;;4920924;29;20212;-84
2021/06/20 01:21:45;;;;;;;30.63;21.43;;;21.10;99.90;;;;;;4922912;29;20190;-84
2021/06/20 01:24:11;;;;;;;30.07;20.83;;;20.90;99.90;;;;;;4945341;29;20252;-84
2021/06/20 01:26:36;;;;;;;33.83;22.73;;;20.80;99.90;;;;;;4922753;29;20194;-84
2021/06/20 01:29:04;;;;;;;29.93;20.63;;;20.60;99.90;;;;;;4921123;29;20222;-84
2021/06/20 01:31:32;;;;;;;32.03;22.50;;;20.50;99.90;;;;;;4923118;29;20175;-84
2021/06/20 01:33:57;;;;;;;31.77;21.50;;;20.70;99.90;;;;;;4933281;29;20222;-83
2021/06/20 01:36:23;;;;;;;35.97;24.37;;;20.80;99.90;;;;;;4938697;29;20654;-84
2021/06/20 01:38:49;;;;;;;40.13;25.80;;;21.00;99.90;;;;;;4938317;29;20182;-84
2021/06/20 01:41:15;;;;;;;40.33;25.00;;;21.00;99.90;;;;;;4920865;29;20259;-84
2021/06/20 01:43:40;;;;;;;35.03;24.17;;;20.80;99.90;;;;;;4929434;29;20195;-84
2021/06/20 01:46:06;;;;;;;36.70;24.37;;;20.70;99.90;;;;;;4922561;29;20217;-84
2021/06/20 01:48:32;;;;;;;36.47;24.97;;;20.60;99.90;;;;;;4927908;29;20191;-84
2021/06/20 01:50:57;;;;;;;40.90;27.87;;;20.50;99.90;;;;;;4932888;29;20218;-84
2021/06/20 01:53:23;;;;;;;39.70;27.17;;;20.50;99.90;;;;;;4936618;29;20650;-84
2021/06/20 01:55:49;;;;;;;36.10;25.70;;;20.50;99.90;;;;;;4934667;29;20195;-85
2021/06/20 01:58:17;;;;;;;35.73;24.23;;;20.50;99.90;;;;;;4929774;29;20183;-84
2021/06/20 02:00:49;;;;;;;37.97;25.27;;;20.70;99.90;;;;;;4921823;29;20193;-84
2021/06/20 02:03:18;;;;;;;39.13;24.57;;;20.60;99.90;;;;;;4920217;29;20193;-84
2021/06/20 02:05:47;;;;;;;38.83;26.07;;;20.60;99.90;;;;;;4923402;29;20276;-84
2021/06/20 02:08:17;;;;;;;36.57;24.47;;;20.80;99.90;;;;;;4955266;29;20293;-84
2021/06/20 02:10:43;;;;;;;37.00;24.33;;;20.80;99.90;;;;;;4921913;29;20258;-84
2021/06/20 02:13:09;;;;;;;32.07;23.23;;;20.80;99.90;;;;;;4928771;29;20641;-84
2021/06/20 02:15:35;;;;;;;35.30;23.87;;;20.80;99.90;;;;;;4927851;29;20187;-84
2021/06/20 02:18:01;;;;;;;32.83;22.27;;;20.90;99.90;;;;;;4955011;29;20694;-84
2021/06/20 02:20:28;;;;;;;33.77;22.20;;;21.00;99.90;;;;;;4937686;29;20178;-84
2021/06/20 02:22:54;;;;;;;32.40;22.03;;;21.00;99.90;;;;;;4927849;29;20238;-84
2021/06/20 02:25:21;;;;;;;31.33;22.57;;;21.20;99.90;;;;;;4937862;29;20184;-84
2021/06/20 02:27:49;;;;;;;30.63;21.00;;;21.10;99.90;;;;;;4928004;29;20214;-84
2021/06/20 02:30:16;;;;;;;32.07;23.00;;;21.10;99.90;;;;;;4953890;29;20783;-84
2021/06/20 02:32:43;;;;;;;31.13;21.83;;;21.00;99.90;;;;;;4953753;29;20205;-85
2021/06/20 02:35:11;;;;;;;31.90;21.63;;;21.10;99.90;;;;;;4936554;29;20562;-84
2021/06/20 02:37:38;;;;;;;33.63;22.87;;;20.90;99.90;;;;;;4922037;29;20719;-84
2021/06/20 02:40:08;;;;;;;30.30;21.33;;;21.00;99.90;;;;;;4919780;29;20198;-83
2021/06/20 02:42:35;;;;;;;32.47;21.73;;;21.10;99.90;;;;;;4926632;29;20191;-82
2021/06/20 02:45:03;;;;;;;29.00;21.33;;;21.20;99.90;;;;;;4928353;29;20649;-83
2021/06/20 02:47:29;;;;;;;34.10;22.80;;;21.20;99.90;;;;;;4929827;29;20199;-83
2021/06/20 02:49:54;;;;;;;28.93;21.40;;;21.10;99.90;;;;;;4937967;29;20217;-83
2021/06/20 02:52:20;;;;;;;33.63;22.47;;;20.80;99.90;;;;;;4921995;29;20275;-83
2021/06/20 02:54:49;;;;;;;34.10;23.17;;;20.70;99.90;;;;;;4931964;29;20560;-83
2021/06/20 02:57:17;;;;;;;36.23;21.87;;;20.40;99.90;;;;;;4951490;29;20183;-83
2021/06/20 02:59:42;;;;;;;36.47;23.50;;;20.20;99.90;;;;;;4921652;29;20191;-84
2021/06/20 03:02:08;;;;;;;36.17;25.00;;;20.10;99.90;;;;;;4920133;29;20187;-84
2021/06/20 03:04:34;;;;;;;32.17;22.37;;;20.10;99.90;;;;;;4921285;29;20546;-84
2021/06/20 03:06:59;;;;;;;37.13;24.83;;;20.10;99.90;;;;;;4923522;29;20287;-83
2021/06/20 03:09:25;;;;;;;35.27;24.20;;;20.10;99.90;;;;;;4919580;29;20263;-83
2021/06/20 03:11:50;;;;;;;39.60;24.63;;;20.00;99.90;;;;;;4922964;29;20678;-83
2021/06/20 03:14:16;;;;;;;37.03;24.53;;;20.00;99.90;;;;;;4930634;29;20184;-84
2021/06/20 03:16:43;;;;;;;34.20;24.47;;;20.00;99.90;;;;;;4929730;29;20539;-83
2021/06/20 03:19:09;;;;;;;32.93;23.63;;;20.10;99.90;;;;;;4953403;29;20257;-83
2021/06/20 03:21:35;;;;;;;33.67;23.73;;;20.10;99.90;;;;;;4953707;29;20239;-83
2021/06/20 03:24:01;;;;;;;35.57;23.97;;;20.10;99.90;;;;;;4923924;29;20180;-83
2021/06/20 03:26:28;;;;;;;31.53;22.73;;;20.00;99.90;;;;;;4929149;29;20191;-82
2021/06/20 03:28:54;;;;;;;35.63;24.87;;;20.10;99.90;;;;;;4935542;29;20598;-82
2021/06/20 03:31:20;;;;;;;36.70;23.90;;;20.00;99.90;;;;;;4927790;29;20180;-83
2021/06/20 03:33:46;;;;;;;38.07;25.17;;;20.00;99.90;;;;;;4922747;29;20195;-84
2021/06/20 03:36:12;;;;;;;35.77;24.00;;;20.00;99.90;;;;;;4953349;29;20187;-83
2021/06/20 03:38:40;;;;;;;36.23;23.03;;;20.00;99.90;;;;;;4950977;29;20737;-84
2021/06/20 03:41:05;;;;;;;39.50;23.57;;;20.00;99.90;;;;;;4930520;29;20182;-83
2021/06/20 03:43:31;;;;;;;39.30;24.63;;;20.10;99.90;;;;;;4920192;29;20184;-84
2021/06/20 03:45:56;;;;;;;36.53;23.50;;;20.10;99.90;;;;;;4928727;29;20649;-84
2021/06/20 03:48:22;;;;;;;36.83;23.97;;;20.10;99.90;;;;;;4938354;29;20266;-84
2021/06/20 03:50:48;;;;;;;37.97;24.03;;;20.10;99.90;;;;;;4934813;29;20227;-84
2021/06/20 03:53:13;;;;;;;35.63;22.97;;;20.10;99.90;;;;;;4950670;29;20188;-84
2021/06/20 03:55:39;;;;;;;33.73;22.13;;;20.00;99.90;;;;;;4930137;29;20236;-85
2021/06/20 03:58:06;;;;;;;32.43;22.47;;;20.00;99.90;;;;;;4919512;29;20172;-84
2021/06/20 04:00:34;;;;;;;34.67;22.57;;;20.10;99.90;;;;;;4919378;29;20641;-84
2021/06/20 04:03:01;;;;;;;35.33;22.97;;;20.20;99.90;;;;;;4919279;29;20301;-84
2021/06/20 04:05:26;;;;;;;37.00;22.53;;;20.20;99.90;;;;;;4921046;29;20523;-84
2021/06/20 04:07:52;;;;;;;33.13;21.90;;;20.20;99.90;;;;;;4931567;29;20913;-84
2021/06/20 04:10:17;;;;;;;35.80;21.90;;;20.20;99.90;;;;;;4944251;29;20216;-84
2021/06/20 04:12:43;;;;;;;38.80;22.40;;;20.20;99.90;;;;;;4937546;29;20243;-84
2021/06/20 04:15:09;;;;;;;35.47;21.77;;;20.10;99.90;;;;;;4928835;29;20186;-83
2021/06/20 04:17:35;;;;;;;34.97;21.67;;;20.10;99.90;;;;;;4953738;28;20600;-84
2021/06/20 04:20:10;;;;;;;31.77;21.53;;;20.10;99.90;;;;;;4936045;29;20176;-83
2021/06/20 04:22:36;;;;;;;32.13;20.93;;;20.10;99.90;;;;;;4922580;29;20180;-83
2021/06/20 04:25:01;;;;;;;31.17;20.20;;;19.90;99.90;;;;;;4928545;29;20187;-84
2021/06/20 04:27:27;;;;;;;32.07;21.07;;;19.90;99.90;;;;;;4923434;29;20555;-83
2021/06/20 04:29:54;;;;;;;36.10;21.00;;;19.70;99.90;;;;;;4922366;29;20275;-84
2021/06/20 04:32:19;;;;;;;33.80;21.63;;;19.70;99.90;;;;;;4938939;29;20176;-83
2021/06/20 04:34:45;;;;;;;32.60;21.70;;;19.80;99.90;;;;;;4934817;29;20184;-84
2021/06/20 04:37:10;;;;;;;33.77;21.30;;;19.80;99.90;;;;;;4934710;29;20186;-83
2021/06/20 04:39:36;;;;;;;33.03;20.80;;;19.70;99.90;;;;;;4927255;29;20712;-84
2021/06/20 04:42:02;;;;;;;35.83;22.23;;;19.70;99.90;;;;;;4922839;29;20203;-84
2021/06/20 04:44:45;;;;;;;32.47;21.67;;;19.80;99.90;;;;;;4929892;29;20186;-84
2021/06/20 04:47:18;;;;;;;35.70;21.80;;;20.10;99.90;;;;;;4935717;29;20206;-83
2021/06/20 04:49:45;;;;;;;34.53;21.60;;;19.90;99.90;;;;;;4932790;29;20255;-84
2021/06/20 04:52:12;;;;;;;35.10;22.00;;;19.70;99.90;;;;;;4937027;29;20282;-83
2021/06/20 04:54:49;;;;;;;35.83;21.57;;;19.60;99.90;;;;;;4936137;29;20179;-84
2021/06/20 04:57:35;;;;;;;35.27;21.73;;;19.70;99.90;;;;;;4956045;29;20609;-83
2021/06/20 05:00:04;;;;;;;35.30;21.57;;;20.00;99.90;;;;;;4938656;29;20281;-83
2021/06/20 05:02:31;;;;;;;37.77;21.83;;;20.00;99.90;;;;;;4921655;29;20192;-83
2021/06/20 05:04:56;;;;;;;34.40;21.37;;;20.10;99.90;;;;;;4921675;29;20656;-84
2021/06/20 05:07:22;;;;;;;34.63;20.53;;;20.10;99.90;;;;;;4938775;29;20270;-83
2021/06/20 05:09:48;;;;;;;36.70;21.80;;;20.00;99.90;;;;;;4926160;29;20711;-84
2021/06/20 05:12:13;;;;;;;36.77;21.57;;;20.00;99.90;;;;;;4928055;29;20215;-82
2021/06/20 05:14:43;;;;;;;36.87;22.13;;;20.00;99.90;;;;;;4939957;29;20190;-84
2021/06/20 05:17:13;;;;;;;35.30;22.20;;;20.00;99.90;;;;;;4925704;29;20192;-83
2021/06/20 05:19:39;;;;;;;39.70;22.20;;;20.00;99.90;;;;;;4920368;29;20255;-83
2021/06/20 05:22:05;;;;;;;33.00;21.77;;;20.10;99.90;;;;;;4933596;29;20183;-84
2021/06/20 05:24:31;;;;;;;33.50;21.70;;;19.90;99.90;;;;;;4939624;29;20189;-83
2021/06/20 05:26:57;;;;;;;35.10;22.00;;;20.00;99.90;;;;;;4937616;29;20215;-84
2021/06/20 05:29:22;;;;;;;36.80;22.50;;;20.00;99.90;;;;;;4931964;29;20207;-83
2021/06/20 05:31:48;;;;;;;31.97;20.90;;;20.00;99.90;;;;;;4937998;29;20551;-83
2021/06/20 05:34:14;;;;;;;36.97;20.97;;;19.90;99.90;;;;;;4935033;29;20198;-83
2021/06/20 05:36:40;;;;;;;36.77;21.23;;;19.90;99.90;;;;;;4940055;29;20223;-84
2021/06/20 05:39:05;;;;;;;39.00;22.03;;;19.90;99.90;;;;;;4954639;28;20562;-84
2021/06/20 05:41:31;;;;;;;39.20;21.70;;;20.00;99.90;;;;;;4938673;29;20652;-84
2021/06/20 05:43:57;;;;;;;35.00;22.23;;;20.20;99.90;;;;;;4933599;29;20264;-84
2021/06/20 05:46:23;;;;;;;39.73;21.40;;;20.10;99.90;;;;;;4922666;29;20215;-84
2021/06/20 05:48:49;;;;;;;36.43;21.50;;;20.00;99.90;;;;;;4938196;29;20180;-84
2021/06/20 05:51:15;;;;;;;38.30;22.47;;;20.00;99.90;;;;;;4920954;29;20191;-83
2021/06/20 05:53:41;;;;;;;35.07;22.40;;;19.90;99.90;;;;;;4934477;29;20179;-84
2021/06/20 05:56:07;;;;;;;39.20;21.93;;;19.90;99.90;;;;;;4938024;29;20191;-84
2021/06/20 05:58:34;;;;;;;38.70;22.33;;;19.90;99.90;;;;;;4934757;29;20247;-84
2021/06/20 06:01:00;;;;;;;33.63;21.97;;;20.00;99.90;;;;;;4926721;29;20207;-84
2021/06/20 06:03:26;;;;;;;33.60;19.90;;;20.10;99.90;;;;;;4935381;29;20229;-84
2021/06/20 06:05:51;;;;;;;31.93;19.33;;;20.10;99.90;;;;;;4931344;29;20184;-84
2021/06/20 06:08:17;;;;;;;27.33;19.10;;;20.20;99.90;;;;;;4933079;29;20266;-84
2021/06/20 06:10:43;;;;;;;27.30;18.90;;;20.30;99.90;;;;;;4953834;29;20211;-83
2021/06/20 06:13:08;;;;;;;27.40;18.60;;;20.50;99.90;;;;;;4936362;29;20195;-84
2021/06/20 06:15:34;;;;;;;25.40;18.03;;;20.70;99.90;;;;;;4934854;29;20208;-84
2021/06/20 06:18:00;;;;;;;28.83;18.60;;;20.70;99.90;;;;;;4937312;29;20211;-84
2021/06/20 06:20:27;;;;;;;24.93;16.67;;;20.80;99.90;;;;;;4922032;29;20228;-95
2021/06/20 06:22:53;;;;;;;27.07;17.40;;;20.80;99.90;;;;;;4922177;29;20188;-95
2021/06/20 06:25:19;;;;;;;27.37;16.87;;;20.80;99.90;;;;;;4932920;29;20187;-96
2021/06/20 06:27:46;;;;;;;27.90;16.90;;;20.70;99.90;;;;;;4932500;29;20742;-94
2021/06/20 06:30:12;;;;;;;24.73;15.67;;;20.70;99.90;;;;;;4938420;29;20254;-96
2021/06/20 06:32:38;;;;;;;23.33;14.97;;;20.70;99.90;;;;;;4956772;29;20184;-95
2021/06/20 06:35:05;;;;;;;20.13;13.90;;;20.80;99.90;;;;;;4955017;29;20321;-94
2021/06/20 06:37:31;;;;;;;23.10;14.43;;;20.90;99.90;;;;;;4960075;29;20184;-92
2021/06/20 06:39:57;;;;;;;20.37;14.10;;;20.90;99.90;;;;;;4927950;29;20195;-89
2021/06/20 06:42:26;;;;;;;18.57;12.47;;;20.80;99.90;;;;;;4921830;29;20473;-91
2021/06/20 06:44:56;;;;;;;13.43;10.97;;;20.80;99.90;;;;;;4922924;29;20194;-91
2021/06/20 06:47:23;;;;;;;14.60;10.57;;;20.90;99.90;;;;;;4920700;29;20169;-93
2021/06/20 06:49:50;;;;;;;15.37;10.27;;;20.90;99.90;;;;;;4925132;29;20216;-90
2021/06/20 06:52:16;;;;;;;12.57;7.93;;;20.90;99.90;;;;;;4926857;29;20248;-91
2021/06/20 06:54:52;;;;;;;10.10;8.17;;;20.90;99.90;;;;;;4919483;29;20184;-91
2021/06/20 06:57:20;;;;;;;11.30;8.47;;;21.00;99.90;;;;;;4925302;29;20272;-90
2021/06/20 06:59:46;;;;;;;9.27;7.33;;;21.10;99.90;;;;;;4924361;29;20183;-91
2021/06/20 07:02:13;;;;;;;7.37;6.60;;;21.20;99.90;;;;;;4931579;29;20186;-90
2021/06/20 07:04:39;;;;;;;9.07;5.97;;;21.30;99.90;;;;;;4952189;29;20272;-91
2021/06/20 07:07:05;;;;;;;7.70;5.47;;;21.20;99.90;;;;;;4939612;29;20227;-93
2021/06/20 07:09:31;;;;;;;6.17;4.50;;;21.00;99.90;;;;;;4930167;29;20235;-91
2021/06/20 07:11:58;;;;;;;6.57;3.83;;;20.90;99.90;;;;;;4924301;29;20240;-91
2021/06/20 07:14:23;;;;;;;4.07;3.27;;;20.90;99.90;;;;;;4929196;29;20175;-91
2021/06/20 07:16:49;;;;;;;7.90;3.27;;;20.90;99.90;;;;;;4921632;29;20194;-92
2021/06/20 07:19:16;;;;;;;4.53;3.63;;;20.90;99.90;;;;;;4923970;29;20211;-92
2021/06/20 07:21:42;;;;;;;4.77;3.00;;;21.10;99.90;;;;;;4926165;29;20200;-92
2021/06/20 07:24:11;;;;;;;4.87;3.63;;;21.20;99.90;;;;;;4936007;29;20242;-91
2021/06/20 07:26:38;;;;;;;4.97;2.93;;;21.20;99.90;;;;;;4930932;29;20739;-94
2021/06/20 07:29:05;;;;;;;6.07;3.10;;;21.30;99.90;;;;;;4927315;29;20711;-94
2021/06/20 07:31:34;;;;;;;7.37;2.90;;;21.30;99.90;;;;;;4935482;29;20270;-94
2021/06/20 07:34:03;;;;;;;3.90;2.53;;;21.50;99.90;;;;;;4935476;29;20279;-93
2021/06/20 07:36:28;;;;;;;4.07;2.80;;;21.60;99.90;;;;;;4933531;28;20275;-92
2021/06/20 07:38:54;;;;;;;3.40;2.50;;;21.70;99.90;;;;;;4925476;29;20288;-93
2021/06/20 07:41:20;;;;;;;5.83;2.63;;;21.80;99.90;;;;;;4932501;29;20181;-93
2021/06/20 07:43:46;;;;;;;6.60;2.63;;;22.00;99.90;;;;;;4923161;29;20182;-93
2021/06/20 07:46:11;;;;;;;5.87;2.00;;;22.10;99.90;;;;;;4925380;29;20192;-91
2021/06/20 07:48:37;;;;;;;2.47;1.80;;;22.10;99.90;;;;;;4948755;29;20189;-92
2021/06/20 07:51:04;;;;;;;2.90;1.87;;;22.00;99.90;;;;;;4923919;29;20229;-93
2021/06/20 07:53:29;;;;;;;2.00;1.70;;;22.00;99.90;;;;;;4929679;29;20172;-91
2021/06/20 07:55:55;;;;;;;2.90;1.60;;;22.10;99.90;;;;;;4922614;29;20252;-93
2021/06/20 07:58:21;;;;;;;4.60;1.80;;;22.20;99.90;;;;;;4929399;29;20215;-92
2021/06/20 08:00:46;;;;;;;2.63;2.07;;;22.20;99.90;;;;;;4938501;28;20281;-91
2021/06/20 08:03:13;;;;;;;2.63;1.53;;;22.20;99.90;;;;;;4934501;29;20178;-91
2021/06/20 08:05:39;;;;;;;2.10;1.53;;;22.20;99.90;;;;;;4937448;29;20229;-93
2021/06/20 08:08:05;;;;;;;3.77;1.60;;;22.40;99.90;;;;;;4931347;29;20176;-93
2021/06/20 08:10:30;;;;;;;3.10;1.20;;;22.50;99.90;;;;;;4930081;29;20229;-92
2021/06/20 08:12:56;;;;;;;3.00;1.70;;;22.50;99.90;;;;;;4929253;29;20190;-92
2021/06/20 08:15:22;;;;;;;2.60;1.40;;;22.40;99.90;;;;;;4932892;29;20659;-92
2021/06/20 08:17:48;;;;;;;2.67;1.30;;;22.20;99.90;;;;;;4932595;29;20210;-93
2021/06/20 08:20:14;;;;;;;2.40;1.50;;;22.20;99.90;;;;;;4931580;29;20561;-92
2021/06/20 08:22:41;;;;;;;2.40;1.53;;;22.30;99.90;;;;;;4937977;29;20190;-93
2021/06/20 08:25:08;;;;;;;3.80;1.67;;;22.40;99.90;;;;;;4936136;29;20608;-92
2021/06/20 08:27:35;;;;;;;3.70;1.53;;;22.20;99.90;;;;;;4939426;29;20179;-92
2021/06/20 08:30:05;;;;;;;2.90;1.53;;;22.30;99.90;;;;;;4937426;29;20295;-93
2021/06/20 08:32:34;;;;;;;3.13;2.07;;;22.30;99.90;;;;;;4932579;29;20192;-92
2021/06/20 08:35:00;;;;;;;2.57;1.47;;;21.90;99.90;;;;;;4936667;29;20190;-91
2021/06/20 08:37:29;;;;;;;3.20;1.20;;;21.90;99.90;;;;;;4933342;29;20261;-83
2021/06/20 08:39:56;;;;;;;2.83;1.43;;;21.80;99.90;;;;;;4928695;29;20333;-83
2021/06/20 08:42:22;;;;;;;1.57;1.10;;;22.00;99.90;;;;;;4931796;29;20183;-82
2021/06/20 08:44:48;;;;;;;1.37;1.10;;;22.20;99.90;;;;;;4935369;29;20201;-83
2021/06/20 08:47:14;;;;;;;2.40;1.00;;;22.30;99.90;;;;;;4931404;29;20190;-83
2021/06/20 08:49:40;;;;;;;2.77;1.03;;;22.30;99.90;;;;;;4927356;29;20209;-83
2021/06/20 08:52:06;;;;;;;4.23;1.27;;;22.30;99.80;;;;;;4951563;29;20189;-82
2021/06/20 08:54:32;;;;;;;1.63;1.20;;;22.40;99.50;;;;;;4947898;29;20182;-83
2021/06/20 08:57:00;;;;;;;2.57;1.10;;;22.30;99.60;;;;;;4934471;29;20195;-83
2021/06/20 08:59:26;;;;;;;2.17;1.50;;;22.50;99.80;;;;;;4932644;29;20637;-83
2021/06/20 09:01:53;;;;;;;1.97;1.27;;;22.80;99.60;;;;;;4947365;29;20536;-83
2021/06/20 09:04:30;;;;;;;6.00;1.40;;;23.10;99.60;;;;;;4933032;29;20186;-83
2021/06/20 09:07:00;;;;;;;3.17;1.23;;;23.20;98.60;;;;;;4927684;29;20186;-85
2021/06/20 09:09:31;;;;;;;1.17;1.00;;;23.40;98.50;;;;;;4934394;29;20597;-83
2021/06/20 09:12:12;;;;;;;1.77;1.50;;;23.50;98.60;;;;;;4947918;29;20265;-83
2021/06/20 09:14:47;;;;;;;2.27;1.20;;;23.50;98.40;;;;;;4929723;29;20248;-83
2021/06/20 09:17:33;;;;;;;1.57;1.20;;;23.50;98.10;;;;;;4933125;29;20183;-82
2021/06/20 09:20:00;;;;;;;2.90;1.20;;;23.40;98.20;;;;;;4924545;29;20631;-83
2021/06/20 09:22:27;;;;;;;2.40;1.50;;;23.40;98.20;;;;;;4932064;29;20246;-83
2021/06/20 09:25:08;;;;;;;2.87;1.23;;;23.50;98.10;;;;;;4932033;29;20186;-83
2021/06/20 09:27:35;;;;;;;2.17;1.13;;;23.50;97.90;;;;;;4927077;29;20188;-83
2021/06/20 09:30:11;;;;;;;1.70;1.10;;;23.60;98.30;;;;;;4946462;29;20216;-86
2021/06/20 09:32:39;;;;;;;1.30;1.00;;;23.70;97.70;;;;;;4924687;29;20199;-83
2021/06/20 09:35:05;;;;;;;1.43;1.00;;;23.50;97.10;;;;;;4939646;29;20182;-83
2021/06/20 09:37:31;;;;;;;1.70;0.90;;;23.50;97.40;;;;;;4929564;29;20178;-83
2021/06/20 09:39:57;;;;;;;1.30;0.90;;;23.60;97.10;;;;;;4930500;29;20227;-83
2021/06/20 09:42:22;;;;;;;2.83;0.80;;;23.60;96.40;;;;;;4927720;29;20199;-83
2021/06/20 09:44:53;;;;;;;2.53;1.10;;;23.50;96.30;;;;;;4932007;29;20197;-83
2021/06/20 09:47:22;;;;;;;1.17;1.00;;;23.60;96.40;;;;;;4945494;29;20282;-83
2021/06/20 09:49:50;;;;;;;2.87;1.10;;;23.70;96.30;;;;;;4950637;29;20575;-83
2021/06/20 09:52:30;;;;;;;2.30;1.17;;;23.80;96.60;;;;;;4950069;29;20203;-83
2021/06/20 09:54:59;;;;;;;4.53;1.00;;;23.90;96.20;;;;;;4926260;29;20191;-83
2021/06/20 09:57:26;;;;;;;1.13;0.80;;;23.90;96.50;;;;;;4922216;29;20191;-83
2021/06/20 10:00:00;;;;;;;3.73;1.10;;;23.90;95.90;;;;;;4942686;29;20266;-83
2021/06/20 10:02:28;;;;;;;1.23;0.80;;;24.10;96.10;;;;;;4932548;29;20186;-83
2021/06/20 10:04:54;;;;;;;1.40;0.93;;;24.20;95.90;;;;;;4942333;29;20192;-83
2021/06/20 10:07:27;;;;;;;4.23;1.13;;;24.30;96.30;;;;;;4934061;29;20184;-83
2021/06/20 10:09:54;;;;;;;3.30;1.20;;;24.40;95.70;;;;;;4944930;29;20222;-82
2021/06/20 10:12:22;;;;;;;1.00;0.90;;;24.10;95.50;;;;;;4934250;29;20743;-83
2021/06/20 10:14:47;;;;;;;0.90;0.77;;;24.00;95.60;;;;;;4931019;29;20191;-83
2021/06/20 10:17:19;;;;;;;3.00;1.03;;;24.00;95.70;;;;;;4932294;29;20327;-83
2021/06/20 10:19:50;;;;;;;4.00;2.50;;;24.00;95.70;;;;;;4953876;29;20179;-83
2021/06/20 10:22:17;;;;;;;2.63;1.70;;;24.00;95.40;;;;;;4935596;29;20757;-83
2021/06/20 10:24:46;;;;;;;2.10;0.83;;;24.10;95.30;;;;;;4924097;29;20179;-83
2021/06/20 10:27:32;;;;;;;1.70;1.00;;;24.30;95.30;;;;;;4941781;29;20191;-82
2021/06/20 10:30:01;;;;;;;1.80;1.03;;;24.40;95.30;;;;;;4932212;29;20211;-83
2021/06/20 10:32:40;;;;;;;1.67;0.83;;;24.60;95.20;;;;;;4950924;29;20199;-83
2021/06/20 10:35:17;;;;;;;1.73;0.80;;;24.70;94.40;;;;;;4922224;29;20295;-83
2021/06/20 10:37:42;;;;;;;2.20;0.87;;;24.30;94.50;;;;;;4940456;29;20192;-83
2021/06/20 10:40:22;;;;;;;1.30;0.90;;;24.40;94.80;;;;;;4921345;29;20696;-85
2021/06/20 10:42:48;;;;;;;2.93;0.90;;;24.60;94.50;;;;;;4935518;29;20187;-82
2021/06/20 10:45:28;;;;;;;2.93;1.00;;;24.20;94.90;;;;;;4919736;29;20199;-83
2021/06/20 10:47:53;;;;;;;1.67;1.10;;;24.30;95.20;;;;;;4919633;29;20219;-83
2021/06/20 10:50:20;;;;;;;3.37;0.90;;;24.30;95.20;;;;;;4923429;29;20691;-83
2021/06/20 10:52:58;;;;;;;2.20;0.93;;;24.40;95.00;;;;;;4939071;29;20179;-84
2021/06/20 10:55:24;;;;;;;2.83;1.00;;;24.50;94.00;;;;;;4939034;29;20186;-83
2021/06/20 10:57:51;;;;;;;1.70;1.13;;;24.70;94.10;;;;;;4938328;29;20241;-84
2021/06/20 11:00:34;;;;;;;1.60;1.10;;;24.90;93.60;;;;;;4954871;29;20197;-83
2021/06/20 11:03:25;;;;;;;2.13;1.20;;;25.10;93.10;;;;;;4938512;29;20544;-83
2021/06/20 11:05:56;;;;;;;2.50;0.70;;;25.10;93.20;;;;;;4920690;29;20198;-83
2021/06/20 11:08:25;;;;;;;1.43;0.90;;;25.00;92.90;;;;;;4919455;29;20188;-83
2021/06/20 11:11:03;;;;;;;1.50;1.00;;;25.30;93.00;;;;;;4919640;29;20719;-83
2021/06/20 11:13:28;;;;;;;2.43;1.00;;;25.40;92.80;;;;;;4919483;29;20680;-83
2021/06/20 11:16:06;;;;;;;1.17;0.73;;;25.50;92.80;;;;;;4919648;29;20267;-83
2021/06/20 11:18:32;;;;;;;1.63;0.90;;;25.70;92.10;;;;;;4919431;29;20200;-83
2021/06/20 11:20:57;;;;;;;2.57;0.93;;;25.80;92.70;;;;;;4936507;29;20187;-83
2021/06/20 11:23:23;;;;;;;4.50;0.97;;;25.80;92.30;;;;;;4919491;29;20176;-86
2021/06/20 11:25:53;;;;;;;1.97;0.90;;;25.70;91.70;;;;;;4954504;29;20273;-83
2021/06/20 11:28:19;;;;;;;2.73;0.90;;;25.90;92.80;;;;;;4934607;29;20180;-83
2021/06/20 11:30:45;;;;;;;2.33;0.90;;;26.00;91.60;;;;;;4937336;29;20211;-83
2021/06/20 11:33:22;;;;;;;1.50;0.93;;;26.30;91.30;;;;;;4955317;29;20279;-84
2021/06/20 11:35:51;;;;;;;1.97;0.83;;;26.40;91.30;;;;;;4937697;28;20187;-83
2021/06/20 11:38:39;;;;;;;0.90;0.80;;;26.90;90.20;;;;;;4929772;29;20185;-81
2021/06/20 11:41:13;;;;;;;1.57;0.97;;;27.10;90.10;;;;;;4957771;29;20181;-81
2021/06/20 11:44:01;;;;;;;0.73;0.73;;;26.40;89.30;;;;;;4940623;29;20469;-82
2021/06/20 11:46:31;;;;;;;1.10;0.60;;;25.80;90.10;;;;;;4941314;29;20191;-84
2021/06/20 11:49:04;;;;;;;2.03;0.90;;;26.00;90.00;;;;;;4932010;29;20197;-83
2021/06/20 11:51:31;;;;;;;2.53;0.80;;;26.60;89.80;;;;;;4939598;29;20184;-83
2021/06/20 11:54:26;;;;;;;1.57;0.70;;;26.70;88.20;;;;;;4933947;29;20201;-84
2021/06/20 11:56:55;;;;;;;3.57;0.70;;;26.80;88.40;;;;;;4940094;29;20293;-84
2021/06/20 11:59:32;;;;;;;2.10;0.80;;;27.20;87.80;;;;;;4940688;29;20221;-83
2021/06/20 12:01:58;;;;;;;1.17;0.57;;;27.80;86.30;;;;;;4933871;29;20242;-81
2021/06/20 12:04:31;;;;;;;4.23;0.53;;;27.60;86.30;;;;;;4939223;29;20186;-83
2021/06/20 12:06:56;;;;;;;1.00;0.90;;;28.40;85.00;;;;;;4955822;29;20229;-82
2021/06/20 12:09:23;;;;;;;1.23;0.63;;;29.60;83.00;;;;;;4931628;29;20222;-85
2021/06/20 12:12:18;;;;;;;1.70;0.43;;;30.50;79.60;;;;;;4957416;29;20295;-83
2021/06/20 12:14:54;;;;;;;2.93;1.00;;;30.60;79.00;;;;;;4939000;29;20183;-85
2021/06/20 12:17:20;;;;;;;2.60;0.50;;;30.80;78.50;;;;;;4941573;29;20211;-86
2021/06/20 12:19:49;;;;;;;1.60;1.10;;;31.50;77.00;;;;;;4940801;29;20193;-86
2021/06/20 12:22:15;;;;;;;1.75;0.60;;;32.70;75.10;;;;;;4941623;29;20636;-85
2021/06/20 12:25:01;;;;;;;1.30;0.70;;;33.80;72.20;;;;;;4958135;29;20203;-85
2021/06/20 12:27:35;;;;;;;1.23;0.70;;;34.50;69.40;;;;;;4940212;29;20237;-83
2021/06/20 12:30:12;;;;;;;1.98;0.70;;;34.20;70.10;;;;;;4928488;29;20223;-85
2021/06/20 12:32:37;;;;;;;0.98;0.70;;;34.90;67.50;;;;;;4924003;29;20199;-86
2021/06/20 12:35:03;;;;;;;1.17;0.65;;;35.10;66.00;;;;;;4940013;29;20238;-83
2021/06/20 12:37:41;;;;;;;2.72;0.68;;;34.30;66.40;;;;;;4940485;29;20179;-81
2021/06/20 12:40:13;;;;;;;1.23;0.80;;;32.80;67.80;;;;;;4936269;29;20186;-87